メインページ
METAR-TAF:

METAR-TAF

空港 :

コペンハーゲン, デンマーク

コペンハーゲン空港

緯度: 55-37N, 経度: 012-39E, 海抜: 5m

現時点の気象観測

当レポートは33分前の12:50(UTC)に作成
の風 12kt
気温 17°C
湿度 72%
気圧 1027 hPa
視程10km以上
高度3300ftの雲はほとんどない
高度8500ftの雲は散在している

METAR: EKCH 251250Z 08012KT 9999 FEW033 SCT085 17/12 Q1027 NOSIG

時間: 15:23 (13:23 UTC)

予報

当レポートは2時間25分前の10:58(UTC)に作成
予報は25日の 12時(UTC)から 26日の 12時(UTC)まで有効
東/北東の風 12kt
視程10km以上
高度3000ftの雲は散在している
25日の 18時(UTC)から 25日の 22時(UTC)まで一時的に
高度1200ftの千切れ雲あり
25日の 22時(UTC)から 26日の 06時(UTC)まで一時的に
高度800ftの千切れ雲あり

TAF: EKCH 251058Z 2512/2612 07012KT 9999 SCT030 TEMPO 2518/2522 BKN012 TEMPO 2522/2606 BKN008

4,000以上の空港の気象観測と天気予報(METAR報とTAF報)

利用可能な観測所は地図上に黄色い丸と赤い丸で示す。

丸の上にカーソルを重ねると観測所名を参照できる。

次にクリックすると気象観測と天気予報を参照できる。

マップの切り替え:黒色「×」印の緑ボタンをクリックして拡大、「-」印の緑ボタンをクリックして縮小、緑色の三角印をクリックして隣りの地図に切り替え


METAR-TAF: